Time;durP1;ratioP1;P1;durP2;ratioP2;P2;SDS_P1;SDS_P2;PMS_P1;PMS_P2;Temp;Humidity;BMP_temperature;BMP_pressure;BME280_temperature;BME280_humidity;BME280_pressure;Samples;Min_cycle;Max_cycle;Signal;HPM_P1;HPM_P2
2022/10/04 00:01:12;;;;;;;;;;;12.90;99.90;;;;;;5012415;28;20384;-91
2022/10/04 00:03:46;;;;;;;;;;;12.40;99.90;;;;;;5011300;28;20372;-91
2022/10/04 00:06:23;;;;;;;;;;;12.40;99.90;;;;;;5010507;28;19921;-89
2022/10/04 00:08:51;;;;;;;;;;;12.30;99.90;;;;;;5012315;28;19920;-90
2022/10/04 00:11:20;;;;;;;;;;;12.30;99.90;;;;;;5010647;28;20292;-90
2022/10/04 00:13:47;;;;;;;;;;;12.30;99.90;;;;;;5012236;28;19927;-92
2022/10/04 00:16:22;;;;;;;;;;;12.30;99.90;;;;;;5011328;28;19921;-91
2022/10/04 00:18:58;;;;;;;;;;;12.30;99.90;;;;;;5011437;28;19982;-92
2022/10/04 00:21:44;;;;;;;;;;;12.30;99.90;;;;;;5011935;28;19920;-90
2022/10/04 00:24:09;;;;;;;;;;;12.20;99.90;;;;;;5011595;28;19983;-91
2022/10/04 00:26:35;;;;;;;;;;;12.20;99.90;;;;;;4999555;28;19921;-91
2022/10/04 00:29:20;;;;;;;;;;;12.70;99.90;;;;;;5013749;28;20007;-90
2022/10/04 00:32:05;;;;;;;;;;;12.30;99.90;;;;;;5031018;28;19920;-91
2022/10/04 00:34:30;;;;;;;;;;;12.30;99.90;;;;;;5015668;28;19925;-89
2022/10/04 00:36:56;;;;;;;;;;;12.30;99.90;;;;;;5014247;28;19931;-90
2022/10/04 00:39:24;;;;;;;;;;;12.30;99.90;;;;;;4999786;28;19924;-91
2022/10/04 00:41:50;;;;;;;;;;;12.30;99.90;;;;;;5014280;28;20097;-91
2022/10/04 00:44:18;;;;;;;;;;;12.90;99.90;;;;;;5031618;28;19920;-90
2022/10/04 00:46:45;;;;;;;;;;;12.30;99.90;;;;;;5030921;28;19920;-90
2022/10/04 00:49:12;;;;;;;;;;;12.80;99.90;;;;;;5030780;28;19981;-90
2022/10/04 00:51:41;;;;;;;;;;;12.30;99.90;;;;;;5018179;28;19929;-90
2022/10/04 00:54:10;;;;;;;;;;;12.40;99.90;;;;;;5016717;28;19920;-91
2022/10/04 00:56:36;;;;;;;;;;;13.40;99.90;;;;;;5035520;28;20017;-90
2022/10/04 00:59:04;;;;;;;;;;;12.40;99.90;;;;;;5016708;28;19963;-91
2022/10/04 01:01:32;;;;;;;;;;;12.40;99.90;;;;;;5054211;28;19917;-91
2022/10/04 01:04:01;;;;;;;;;;;12.40;99.90;;;;;;5039986;28;19947;-90
2022/10/04 01:06:27;;;;;;;;;;;12.80;99.90;;;;;;5023869;28;19974;-91
2022/10/04 01:08:54;;;;;;;;;;;12.90;99.90;;;;;;5057363;28;19972;-91
2022/10/04 01:11:23;;;;;;;;;;;12.40;99.90;;;;;;5054932;28;19982;-91
2022/10/04 01:13:57;;;;;;;;;;;12.50;99.90;;;;;;5056701;28;19916;-91
2022/10/04 01:16:27;;;;;;;;;;;12.50;99.90;;;;;;5038415;28;19959;-90
2022/10/04 01:18:52;;;;;;;;;;;12.50;99.90;;;;;;5053957;28;19917;-90
2022/10/04 01:21:18;;;;;;;;;;;12.50;99.90;;;;;;5053156;28;19954;-90
2022/10/04 01:23:45;;;;;;;;;;;12.80;99.90;;;;;;5036668;28;19917;-91
2022/10/04 01:26:29;;;;;;;;;;;13.20;99.90;;;;;;5055533;28;20141;-92
2022/10/04 01:28:57;;;;;;;;;;;12.50;99.90;;;;;;5051495;28;20003;-91
2022/10/04 01:31:24;;;;;;;;;;;12.40;99.90;;;;;;5034778;28;19964;-90
2022/10/04 01:33:50;;;;;;;;;;;12.50;99.90;;;;;;5033399;28;19936;-91
2022/10/04 01:36:15;;;;;;;;;;;12.50;99.90;;;;;;5016986;28;19921;-91
2022/10/04 01:38:41;;;;;;;;;;;12.50;99.90;;;;;;5034368;28;20005;-91
2022/10/04 01:41:07;;;;;;;;;;;12.40;99.90;;;;;;5033078;28;20027;-89
2022/10/04 01:43:38;;;;;;;;;;;12.50;99.90;;;;;;5033104;28;19964;-90
2022/10/04 01:46:07;;;;;;;;;;;12.50;99.90;;;;;;5031518;28;20283;-90
2022/10/04 01:48:35;;;;;;;;;;;11.50;99.90;;;;;;5031016;28;19927;-90
2022/10/04 01:51:04;;;;;;;;;;;12.50;99.90;;;;;;5029968;28;20007;-90
2022/10/04 01:53:30;;;;;;;;;;;12.50;99.90;;;;;;5030118;28;19928;-91
2022/10/04 01:56:03;;;;;;;;;;;12.50;99.90;;;;;;5014321;28;19921;-91
2022/10/04 01:58:31;;;;;;;;;;;13.60;99.90;;;;;;5028910;28;20299;-90
2022/10/04 02:01:00;;;;;;;;;;;12.50;99.90;;;;;;5013948;28;19927;-90
2022/10/04 02:03:31;;;;;;;;;;;12.80;99.90;;;;;;5028412;28;20364;-90
2022/10/04 02:05:59;;;;;;;;;;;12.50;99.90;;;;;;5029575;28;20015;-90
2022/10/04 02:08:26;;;;;;;;;;;12.50;99.90;;;;;;5029595;28;19927;-91
2022/10/04 02:10:53;;;;;;;;;;;12.60;99.90;;;;;;5012602;28;19921;-91
2022/10/04 02:13:20;;;;;;;;;;;12.50;99.90;;;;;;5030369;28;19921;-91
2022/10/04 02:15:46;;;;;;;;;;;12.40;99.90;;;;;;5011001;28;19927;-91
2022/10/04 02:18:13;;;;;;;;;;;12.50;99.90;;;;;;5030154;28;19921;-91
2022/10/04 02:20:39;;;;;;;;;;;12.50;99.90;;;;;;5028247;28;20381;-91
2022/10/04 02:23:05;;;;;;;;;;;12.50;99.90;;;;;;5029645;28;19921;-90
2022/10/04 02:25:31;;;;;;;;;;;12.40;99.90;;;;;;5029475;28;19982;-91
2022/10/04 02:27:57;;;;;;;;;;;12.40;99.90;;;;;;5012410;28;19971;-90
2022/10/04 02:30:23;;;;;;;;;;;12.40;99.90;;;;;;5013667;28;19974;-91
2022/10/04 02:32:58;;;;;;;;;;;12.40;99.90;;;;;;5011670;28;19921;-91
2022/10/04 02:35:26;;;;;;;;;;;12.30;99.90;;;;;;5031081;28;19920;-91
2022/10/04 02:37:54;;;;;;;;;;;12.30;99.90;;;;;;5028550;28;19927;-91
2022/10/04 02:40:22;;;;;;;;;;;12.30;99.90;;;;;;5029374;28;19931;-90
2022/10/04 02:42:52;;;;;;;;;;;13.30;99.90;;;;;;5030231;28;19921;-90
2022/10/04 02:45:32;;;;;;;;;;;12.20;99.90;;;;;;5027748;28;20383;-91
2022/10/04 02:48:09;;;;;;;;;;;12.20;99.90;;;;;;5030200;28;19924;-91
2022/10/04 02:50:38;;;;;;;;;;;12.20;99.90;;;;;;5028407;28;19921;-90
2022/10/04 02:53:28;;;;;;;;;;;12.20;99.90;;;;;;5029895;28;19931;-90
2022/10/04 02:55:54;;;;;;;;;;;12.20;99.90;;;;;;5032159;28;19920;-90
2022/10/04 02:58:22;;;;;;;;;;;12.10;99.90;;;;;;5014696;28;19934;-91
2022/10/04 03:00:49;;;;;;;;;;;12.10;99.90;;;;;;5015683;28;20411;-90
2022/10/04 03:03:35;;;;;;;;;;;11.50;99.90;;;;;;5038811;28;19920;-91
2022/10/04 03:06:05;;;;;;;;;;;11.20;99.90;;;;;;5041964;28;19984;-89
2022/10/04 03:08:33;;;;;;;;;;;12.20;99.90;;;;;;5041087;28;19950;-90
2022/10/04 03:10:59;;;;;;;;;;;12.10;99.90;;;;;;5023724;28;19921;-90
2022/10/04 03:13:26;;;;;;;;;;;12.10;99.90;;;;;;5047853;28;19920;-90
2022/10/04 03:15:51;;;;;;;;;;;12.10;99.90;;;;;;5030605;28;19928;-90
2022/10/04 03:18:18;;;;;;;;;;;12.20;99.90;;;;;;5050553;28;20023;-91
2022/10/04 03:20:44;;;;;;;;;;;12.90;99.90;;;;;;5045057;28;20372;-90
2022/10/04 03:23:11;;;;;;;;;;;12.10;99.90;;;;;;5043689;28;19921;-89
2022/10/04 03:25:48;;;;;;;;;;;12.10;99.90;;;;;;5025175;28;19921;-93
2022/10/04 03:28:14;;;;;;;;;;;12.10;99.90;;;;;;5041770;28;20000;-91
2022/10/04 03:30:44;;;;;;;;;;;12.10;99.90;;;;;;5026217;28;19925;-89
2022/10/04 03:33:15;;;;;;;;;;;12.10;99.90;;;;;;5012879;28;19975;-89
2022/10/04 03:35:41;;;;;;;;;;;12.10;99.90;;;;;;5032006;28;19924;-90
2022/10/04 03:38:08;;;;;;;;;;;12.10;99.90;;;;;;5014734;28;19963;-90
2022/10/04 03:40:36;;;;;;;;;;;12.10;99.90;;;;;;5033669;28;19976;-90
2022/10/04 03:43:03;;;;;;;;;;;12.10;99.90;;;;;;5033720;28;19921;-89
2022/10/04 03:45:30;;;;;;;;;;;12.00;99.90;;;;;;5016933;28;19948;-89
2022/10/04 03:48:01;;;;;;;;;;;12.00;99.90;;;;;;5000345;28;19921;-91
2022/10/04 03:50:28;;;;;;;;;;;12.00;99.90;;;;;;5030712;28;19921;-89
2022/10/04 03:52:58;;;;;;;;;;;11.00;99.90;;;;;;5034126;28;19987;-84
2022/10/04 03:55:27;;;;;;;;;;;12.00;99.90;;;;;;5027203;28;19920;-90
2022/10/04 03:57:53;;;;;;;;;;;12.10;99.90;;;;;;5033268;28;20370;-90
2022/10/04 04:00:19;;;;;;;;;;;12.00;99.90;;;;;;5019504;28;20350;-90
2022/10/04 04:02:54;;;;;;;;;;;12.10;99.90;;;;;;5036416;28;19928;-91
2022/10/04 04:05:26;;;;;;;;;;;12.10;99.90;;;;;;5019940;28;19959;-90
2022/10/04 04:08:05;;;;;;;;;;;12.10;99.90;;;;;;5015903;28;19921;-90
2022/10/04 04:10:34;;;;;;;;;;;12.10;99.90;;;;;;5016598;28;20627;-91
2022/10/04 04:13:23;;;;;;;;;;;12.00;99.90;;;;;;5030750;28;19921;-90
2022/10/04 04:15:49;;;;;;;;;;;12.10;99.90;;;;;;5004162;28;20360;-91
2022/10/04 04:18:24;;;;;;;;;;;12.10;99.90;;;;;;5015448;28;19927;-90
2022/10/04 04:20:52;;;;;;;;;;;12.10;99.90;;;;;;5025149;28;20418;-91
2022/10/04 04:23:34;;;;;;;;;;;12.10;99.90;;;;;;5016067;28;19921;-90
2022/10/04 04:26:16;;;;;;;;;;;12.10;99.90;;;;;;5030790;28;19974;-89
2022/10/04 04:29:02;;;;;;;;;;;12.10;99.90;;;;;;5014712;28;20380;-89
2022/10/04 04:31:34;;;;;;;;;;;12.00;99.90;;;;;;5032425;28;19948;-89
2022/10/04 04:34:02;;;;;;;;;;;12.00;99.90;;;;;;5030118;28;20012;-88
2022/10/04 04:36:29;;;;;;;;;;;12.00;99.90;;;;;;5032688;28;20415;-89
2022/10/04 04:41:57;;;;;;;;;;;11.90;99.90;;;;;;5031926;28;19921;-94
2022/10/04 04:44:23;;;;;;;;;;;11.90;99.90;;;;;;5015752;28;19978;-91
2022/10/04 04:46:55;;;;;;;;;;;11.80;99.90;;;;;;5014709;28;20550;-88
2022/10/04 04:49:22;;;;;;;;;;;11.90;99.90;;;;;;5016257;28;20007;-89
2022/10/04 04:51:51;;;;;;;;;;;11.80;99.90;;;;;;4998063;28;19974;-89
2022/10/04 04:54:18;;;;;;;;;;;12.20;99.90;;;;;;5015215;28;19921;-87
2022/10/04 04:56:46;;;;;;;;;;;11.70;99.90;;;;;;5030763;28;20274;-87
2022/10/04 04:59:12;;;;;;;;;;;11.70;99.90;;;;;;5013841;28;19928;-90
2022/10/04 05:01:43;;;;;;;;;;;12.30;99.90;;;;;;5033265;28;20276;-86
2022/10/04 05:04:08;;;;;;;;;;;11.60;99.90;;;;;;5030085;28;19921;-89
2022/10/04 05:06:35;;;;;;;;;;;11.60;99.90;;;;;;5031479;28;19928;-87
2022/10/04 05:09:04;;;;;;;;;;;11.50;99.90;;;;;;5048437;28;19929;-88
2022/10/04 05:11:30;;;;;;;;;;;12.00;99.90;;;;;;5013254;28;20019;-87
2022/10/04 05:14:04;;;;;;;;;;;11.60;99.90;;;;;;5030843;28;19920;-87
2022/10/04 05:16:30;;;;;;;;;;;12.40;99.90;;;;;;5029818;28;19920;-85
2022/10/04 05:19:04;;;;;;;;;;;11.40;99.90;;;;;;5014670;28;19940;-88
2022/10/04 05:21:31;;;;;;;;;;;11.40;99.90;;;;;;5025501;28;19960;-89
2022/10/04 05:23:57;;;;;;;;;;;11.40;99.90;;;;;;5015040;28;19921;-87
2022/10/04 05:26:25;;;;;;;;;;;11.40;99.90;;;;;;5030589;28;20272;-89
2022/10/04 05:28:51;;;;;;;;;;;11.30;99.90;;;;;;5031238;28;19947;-90
2022/10/04 05:31:26;;;;;;;;;;;11.60;99.90;;;;;;5030780;28;20357;-88
2022/10/04 05:33:58;;;;;;;;;;;11.20;99.90;;;;;;5029236;28;19920;-89
2022/10/04 05:36:45;;;;;;;;;;;11.20;99.90;;;;;;5031822;28;19925;-89
2022/10/04 05:39:21;;;;;;;;;;;11.20;99.90;;;;;;5014813;28;19975;-95
2022/10/04 05:41:53;;;;;;;;;;;11.20;99.90;;;;;;5016677;28;20000;-92
2022/10/04 05:44:26;;;;;;;;;;;11.10;99.90;;;;;;5015489;28;19920;-94
2022/10/04 05:46:56;;;;;;;;;;;11.20;99.90;;;;;;5013898;28;19928;-92
2022/10/04 05:49:23;;;;;;;;;;;11.20;99.90;;;;;;5015727;28;20018;-92
2022/10/04 05:52:01;;;;;;;;;;;11.20;99.90;;;;;;5014694;28;19982;-94
2022/10/04 05:54:27;;;;;;;;;;;11.90;99.90;;;;;;5014828;28;20292;-91
2022/10/04 05:56:54;;;;;;;;;;;12.00;99.90;;;;;;5016740;28;19921;-92
2022/10/04 05:59:19;;;;;;;;;;;11.20;99.90;;;;;;5013211;28;19968;-85
2022/10/04 06:01:54;;;;;;;;;;;11.30;99.90;;;;;;5030393;28;19975;-86
2022/10/04 06:04:25;;;;;;;;;;;11.10;99.90;;;;;;5028945;28;20298;-86
2022/10/04 06:06:51;;;;;;;;;;;10.90;99.90;;;;;;5030154;28;19943;-86
2022/10/04 06:09:35;;;;;;;;;;;11.10;99.90;;;;;;5029377;28;20357;-86
2022/10/04 06:12:14;;;;;;;;;;;11.10;99.90;;;;;;5029429;28;19939;-86
2022/10/04 06:14:47;;;;;;;;;;;11.10;99.90;;;;;;5030225;28;19944;-86
2022/10/04 06:17:37;;;;;;;;;;;11.10;99.90;;;;;;5028760;28;19921;-86
2022/10/04 06:20:19;;;;;;;;;;;11.10;99.90;;;;;;5032490;28;20150;-86
2022/10/04 06:22:46;;;;;;;;;;;11.10;99.90;;;;;;5018555;28;20311;-86
2022/10/04 06:25:25;;;;;;;;;;;11.10;99.90;;;;;;5023836;28;19943;-86
2022/10/04 06:27:56;;;;;;;;;;;11.10;99.90;;;;;;5041555;28;19931;-86
2022/10/04 06:30:22;;;;;;;;;;;12.40;99.90;;;;;;5034801;28;19921;-86
2022/10/04 06:32:48;;;;;;;;;;;11.10;99.90;;;;;;5032104;28;19928;-86
2022/10/04 06:35:21;;;;;;;;;;;11.40;99.90;;;;;;5029667;28;20411;-85
2022/10/04 06:38:04;;;;;;;;;;;11.10;99.90;;;;;;5029355;28;19967;-85
2022/10/04 06:40:33;;;;;;;;;;;11.20;99.90;;;;;;5013253;28;19920;-86
2022/10/04 06:43:01;;;;;;;;;;;11.20;99.90;;;;;;5011259;28;19928;-85
2022/10/04 06:45:30;;;;;;;;;;;11.20;99.90;;;;;;5009460;28;20335;-85
2022/10/04 06:48:07;;;;;;;;;;;11.20;99.90;;;;;;5008400;28;19956;-86
2022/10/04 06:50:38;;;;;;;;;;;11.40;99.90;;;;;;5009120;28;20008;-86
2022/10/04 06:53:06;;;;;;;;;;;11.30;99.90;;;;;;5009527;28;20316;-86
2022/10/04 06:55:48;;;;;;;;;;;11.40;99.90;;;;;;5024336;28;19921;-87
2022/10/04 06:58:34;;;;;;;;;;;11.50;99.90;;;;;;5026003;28;19928;-85
2022/10/04 07:01:08;;;;;;;;;;;11.60;99.90;;;;;;5024500;28;20372;-86
2022/10/04 07:03:45;;;;;;;;;;;11.70;99.90;;;;;;5025225;28;19997;-86
2022/10/04 07:06:11;;;;;;;;;;;11.80;99.90;;;;;;5008942;28;19968;-85
2022/10/04 07:08:50;;;;;;;;;;;11.90;99.90;;;;;;5023667;28;19928;-85
2022/10/04 07:11:16;;;;;;;;;;;12.00;99.90;;;;;;5009267;28;19921;-85
2022/10/04 07:13:46;;;;;;;;;;;12.30;99.90;;;;;;5024241;28;19921;-85
2022/10/04 07:16:15;;;;;;;;;;;12.60;99.90;;;;;;5024682;28;19921;-85
2022/10/04 07:18:47;;;;;;;;;;;12.20;99.90;;;;;;5008735;28;20106;-84
2022/10/04 07:21:14;;;;;;;;;;;12.30;99.90;;;;;;5025513;28;19921;-86
2022/10/04 07:23:55;;;;;;;;;;;12.30;99.90;;;;;;5010239;28;19921;-85
2022/10/04 07:26:37;;;;;;;;;;;12.30;99.90;;;;;;5025737;28;20015;-85
2022/10/04 07:29:19;;;;;;;;;;;12.30;99.90;;;;;;5010488;28;19925;-86
2022/10/04 07:31:46;;;;;;;;;;;12.30;99.90;;;;;;5025254;28;19966;-85
2022/10/04 07:34:19;;;;;;;;;;;12.30;99.90;;;;;;5023026;28;19960;-85
2022/10/04 07:36:56;;;;;;;;;;;12.40;99.90;;;;;;5025641;28;19974;-85
2022/10/04 07:39:41;;;;;;;;;;;12.50;99.90;;;;;;5008238;28;20254;-85
2022/10/04 07:42:23;;;;;;;;;;;12.70;99.90;;;;;;5024431;28;20423;-85
2022/10/04 07:45:15;;;;;;;;;;;12.90;99.90;;;;;;5024842;28;20438;-85
2022/10/04 07:47:42;;;;;;;;;;;13.20;99.90;;;;;;5005212;28;20296;-86
2022/10/04 07:50:22;;;;;;;;;;;13.30;99.90;;;;;;5009098;28;19921;-85
2022/10/04 07:52:56;;;;;;;;;;;13.40;99.90;;;;;;5007814;28;19948;-85
2022/10/04 07:55:25;;;;;;;;;;;13.50;99.90;;;;;;5007592;28;20462;-85
2022/10/04 07:57:50;;;;;;;;;;;13.50;99.90;;;;;;5008585;28;19932;-86
2022/10/04 08:00:18;;;;;;;;;;;14.10;99.90;;;;;;5006986;28;19921;-86
2022/10/04 08:03:03;;;;;;;;;;;13.50;99.90;;;;;;5025071;28;19921;-85
2022/10/04 08:05:28;;;;;;;;;;;13.60;99.90;;;;;;5023764;28;20024;-86
2022/10/04 08:08:12;;;;;;;;;;;13.90;99.90;;;;;;5007836;28;19971;-86
2022/10/04 08:10:38;;;;;;;;;;;13.40;99.90;;;;;;5008342;28;19921;-86
2022/10/04 08:13:25;;;;;;;;;;;13.40;99.90;;;;;;5023884;28;19921;-86
2022/10/04 08:15:51;;;;;;;;;;;13.40;99.90;;;;;;5024734;28;19925;-85
2022/10/04 08:18:16;;;;;;;;;;;13.30;99.90;;;;;;5024351;28;20500;-85
2022/10/04 08:20:48;;;;;;;;;;;13.30;99.90;;;;;;5024443;28;20145;-85
2022/10/04 08:23:33;;;;;;;;;;;13.20;99.90;;;;;;5024989;28;19968;-85
2022/10/04 08:25:58;;;;;;;;;;;13.10;99.90;;;;;;5023338;28;19921;-86
2022/10/04 08:31:37;;;;;;;;;;;13.10;99.90;;;;;;5023577;28;19940;-86
2022/10/04 08:34:22;;;;;;;;;;;13.20;99.90;;;;;;4994806;28;20423;-86
2022/10/04 08:36:54;;;;;;;;;;;13.30;99.90;;;;;;5024630;28;19921;-86
2022/10/04 08:39:30;;;;;;;;;;;13.50;99.90;;;;;;5023383;28;19971;-86
2022/10/04 08:42:19;;;;;;;;;;;14.00;99.90;;;;;;5024047;28;20380;-86
2022/10/04 08:44:57;;;;;;;;;;;13.70;99.90;;;;;;5016664;28;19951;-85
2022/10/04 08:47:43;;;;;;;;;;;13.90;99.90;;;;;;5026181;28;20008;-86
2022/10/04 08:50:27;;;;;;;;;;;14.10;99.90;;;;;;5011417;28;19921;-86
2022/10/04 08:53:14;;;;;;;;;;;14.10;99.90;;;;;;5027012;28;19921;-86
2022/10/04 08:55:49;;;;;;;;;;;14.30;99.90;;;;;;5027098;28;19964;-87
2022/10/04 08:58:28;;;;;;;;;;;14.30;99.90;;;;;;5028189;28;19921;-87
2022/10/04 09:00:56;;;;;;;;;;;14.40;99.90;;;;;;5014048;28;20380;-87
2022/10/04 09:03:41;;;;;;;;;;;14.50;99.90;;;;;;5017240;28;19921;-87
2022/10/04 09:06:25;;;;;;;;;;;14.60;99.90;;;;;;5017623;28;19928;-86
2022/10/04 09:09:10;;;;;;;;;;;14.60;99.90;;;;;;5030635;28;19924;-86
2022/10/04 09:11:41;;;;;;;;;;;14.80;99.90;;;;;;5015510;28;19950;-86
2022/10/04 09:14:16;;;;;;;;;;;14.80;99.90;;;;;;5031548;28;19921;-87
2022/10/04 09:16:45;;;;;;;;;;;14.90;99.90;;;;;;5013342;28;19921;-87
2022/10/04 09:19:20;;;;;;;;;;;14.90;99.90;;;;;;5012794;28;20121;-86
2022/10/04 09:21:46;;;;;;;;;;;14.90;99.90;;;;;;5012067;28;20395;-87
2022/10/04 09:24:11;;;;;;;;;;;14.90;99.90;;;;;;5013968;28;19921;-87
2022/10/04 09:26:40;;;;;;;;;;;15.00;99.90;;;;;;5028064;28;19931;-87
2022/10/04 09:29:25;;;;;;;;;;;15.10;99.90;;;;;;5027697;28;19928;-87
2022/10/04 09:32:01;;;;;;;;;;;15.30;99.90;;;;;;5010610;28;19932;-86
2022/10/04 09:34:46;;;;;;;;;;;16.00;99.90;;;;;;5009967;28;19931;-87
2022/10/04 09:37:17;;;;;;;;;;;15.40;99.90;;;;;;5011665;28;19925;-86
2022/10/04 09:39:59;;;;;;;;;;;15.50;99.90;;;;;;5032811;28;19921;-87
2022/10/04 09:42:41;;;;;;;;;;;15.60;99.90;;;;;;5019855;28;19928;-86
2022/10/04 09:45:19;;;;;;;;;;;15.60;99.90;;;;;;5038565;28;19952;-86
2022/10/04 09:47:50;;;;;;;;;;;15.70;99.90;;;;;;5020686;28;19921;-86
2022/10/04 09:50:19;;;;;;;;;;;15.70;99.90;;;;;;5016582;28;19921;-86
2022/10/04 09:52:54;;;;;;;;;;;15.80;99.90;;;;;;5027763;28;20022;-86
2022/10/04 09:55:22;;;;;;;;;;;15.80;99.90;;;;;;5027742;28;19928;-86
2022/10/04 09:58:08;;;;;;;;;;;15.90;99.90;;;;;;5026391;28;19982;-86
2022/10/04 10:01:00;;;;;;;;;;;16.00;99.90;;;;;;5025229;28;19921;-87
2022/10/04 10:03:34;;;;;;;;;;;16.10;99.90;;;;;;4996648;28;20372;-87
2022/10/04 10:06:06;;;;;;;;;;;16.10;99.90;;;;;;5009963;28;19928;-87
2022/10/04 10:09:04;;;;;;;;;;;16.10;99.90;;;;;;5025474;28;19928;-86
2022/10/04 10:14:44;;;;;;;;;;;16.20;99.90;;;;;;5025786;28;20432;-87
2022/10/04 10:17:14;;;;;;;;;;;16.30;99.90;;;;;;5008509;28;20012;-86
2022/10/04 10:19:59;;;;;;;;;;;16.40;99.90;;;;;;5026543;28;19936;-87
2022/10/04 10:22:43;;;;;;;;;;;16.40;99.90;;;;;;5008509;28;20003;-86
2022/10/04 10:25:20;;;;;;;;;;;16.40;99.90;;;;;;5008844;28;20369;-86
2022/10/04 10:27:46;;;;;;;;;;;16.40;99.90;;;;;;5010854;28;19921;-86
2022/10/04 10:30:22;;;;;;;;;;;16.40;99.90;;;;;;5010850;28;20012;-86
2022/10/04 10:32:54;;;;;;;;;;;16.50;99.90;;;;;;5011905;28;19920;-86
2022/10/04 10:35:29;;;;;;;;;;;16.50;99.90;;;;;;5010590;28;19921;-85
2022/10/04 10:38:06;;;;;;;;;;;16.70;99.90;;;;;;5011191;28;20339;-86
2022/10/04 10:40:51;;;;;;;;;;;16.80;99.90;;;;;;5028464;28;20359;-88
2022/10/04 10:43:17;;;;;;;;;;;16.90;99.90;;;;;;5034476;28;19920;-87
2022/10/04 10:46:05;;;;;;;;;;;17.00;99.90;;;;;;5024640;28;20431;-87
2022/10/04 10:48:59;;;;;;;;;;;17.20;99.90;;;;;;5064229;28;19921;-91
2022/10/04 10:51:43;;;;;;;;;;;17.40;99.90;;;;;;5017884;28;19974;-89
2022/10/04 10:54:10;;;;;;;;;;;17.50;99.90;;;;;;5024457;28;20394;-88
2022/10/04 10:56:51;;;;;;;;;;;17.50;99.90;;;;;;5037148;28;20379;-87
2022/10/04 10:59:32;;;;;;;;;;;17.60;99.90;;;;;;5035643;28;19950;-87
2022/10/04 11:02:22;;;;;;;;;;;17.60;99.90;;;;;;5051767;28;19984;-87
2022/10/04 11:05:06;;;;;;;;;;;17.70;99.90;;;;;;5031196;28;20380;-86
2022/10/04 11:07:36;;;;;;;;;;;17.70;99.90;;;;;;5030658;28;19921;-86
2022/10/04 11:10:20;;;;;;;;;;;17.70;99.90;;;;;;5013061;28;19998;-87
2022/10/04 11:12:55;;;;;;;;;;;17.70;99.90;;;;;;5029575;28;21008;-86
2022/10/04 11:15:49;;;;;;;;;;;17.70;99.90;;;;;;5029410;28;19924;-87
2022/10/04 11:18:28;;;;;;;;;;;17.70;99.90;;;;;;5027553;28;20407;-86
2022/10/04 11:21:12;;;;;;;;;;;17.70;99.90;;;;;;5011451;28;19960;-86
2022/10/04 11:23:57;;;;;;;;;;;17.70;99.90;;;;;;5011255;28;19921;-85
2022/10/04 11:26:42;;;;;;;;;;;17.70;99.90;;;;;;5027438;28;20012;-86
2022/10/04 11:29:09;;;;;;;;;;;17.70;99.90;;;;;;5012213;28;20361;-86
2022/10/04 11:31:57;;;;;;;;;;;17.80;99.90;;;;;;5027586;28;20019;-86
2022/10/04 11:34:41;;;;;;;;;;;17.90;99.90;;;;;;5028236;28;19932;-86
2022/10/04 11:37:07;;;;;;;;;;;18.00;99.90;;;;;;5029075;28;20367;-86
2022/10/04 11:39:38;;;;;;;;;;;18.10;99.90;;;;;;5028092;28;19921;-86
2022/10/04 11:42:24;;;;;;;;;;;18.10;99.90;;;;;;5012392;28;19920;-86
2022/10/04 11:44:55;;;;;;;;;;;18.20;99.90;;;;;;5029190;28;19920;-86
2022/10/04 11:47:33;;;;;;;;;;;18.20;99.90;;;;;;5035037;28;19931;-87
2022/10/04 11:49:59;;;;;;;;;;;18.20;99.90;;;;;;5018715;28;19927;-86
2022/10/04 11:52:45;;;;;;;;;;;18.20;99.90;;;;;;5034155;28;19968;-90
2022/10/04 11:55:22;;;;;;;;;;;18.20;99.90;;;;;;5035743;28;19921;-88
2022/10/04 11:58:08;;;;;;;;;;;18.10;99.90;;;;;;5033778;28;20011;-86
2022/10/04 12:00:53;;;;;;;;;;;18.10;99.90;;;;;;5001964;28;20008;-86
2022/10/04 12:03:37;;;;;;;;;;;18.10;99.90;;;;;;5042744;28;19921;-86
2022/10/04 12:06:13;;;;;;;;;;;18.10;99.90;;;;;;5023787;28;20291;-85
2022/10/04 12:09:04;;;;;;;;;;;18.20;99.90;;;;;;5045752;28;19943;-87
2022/10/04 12:14:48;;;;;;;;;;;18.20;99.90;;;;;;5035722;28;19956;-86
2022/10/04 12:17:13;;;;;;;;;;;18.20;99.90;;;;;;5034265;28;19947;-84
2022/10/04 12:19:54;;;;;;;;;;;18.20;99.90;;;;;;5044301;28;19944;-81
2022/10/04 12:22:39;;;;;;;;;;;18.30;99.90;;;;;;5026522;28;20395;-84
2022/10/04 12:25:11;;;;;;;;;;;18.40;99.90;;;;;;5054866;28;19928;-84
2022/10/04 12:27:51;;;;;;;;;;;18.60;99.90;;;;;;5039298;28;19947;-85
2022/10/04 12:30:19;;;;;;;;;;;18.70;99.90;;;;;;5056643;28;19916;-84
2022/10/04 12:33:04;;;;;;;;;;;18.60;99.90;;;;;;5057005;28;19940;-85
2022/10/04 12:35:49;;;;;;;;;;;18.70;99.90;;;;;;5056043;28;19923;-85
2022/10/04 12:38:18;;;;;;;;;;;18.70;99.90;;;;;;5056693;28;19926;-84
2022/10/04 12:40:47;;;;;;;;;;;18.70;99.90;;;;;;5056045;28;19921;-85
2022/10/04 12:43:21;;;;;;;;;;;18.80;99.90;;;;;;5073264;28;19974;-85
2022/10/04 12:45:56;;;;;;;;;;;18.80;99.90;;;;;;5056327;28;19966;-85
2022/10/04 12:48:41;;;;;;;;;;;18.80;99.90;;;;;;5054584;28;19994;-85
2022/10/04 12:51:30;;;;;;;;;;;18.80;99.90;;;;;;5040412;28;19943;-84
2022/10/04 12:54:00;;;;;;;;;;;18.80;99.90;;;;;;5032293;28;20011;-84
2022/10/04 12:56:36;;;;;;;;;;;18.80;99.90;;;;;;5032498;28;19928;-85
2022/10/04 12:59:01;;;;;;;;;;;18.70;99.90;;;;;;5032499;28;19924;-84
2022/10/04 13:01:45;;;;;;;;;;;18.70;99.90;;;;;;5031517;28;20431;-84
2022/10/04 13:04:11;;;;;;;;;;;18.70;99.90;;;;;;5015464;28;19924;-85
2022/10/04 13:06:36;;;;;;;;;;;18.70;99.90;;;;;;5049908;28;19928;-84
2022/10/04 13:09:21;;;;;;;;;;;18.60;99.90;;;;;;5036686;28;20196;-84
2022/10/04 13:11:56;;;;;;;;;;;18.60;99.90;;;;;;5043645;28;19921;-86
2022/10/04 13:14:41;;;;;;;;;;;18.60;99.90;;;;;;5024734;28;19924;-84
2022/10/04 13:17:16;;;;;;;;;;;18.70;99.90;;;;;;5017021;28;19921;-84
2022/10/04 13:19:51;;;;;;;;;;;18.80;99.90;;;;;;5021343;28;19984;-85
2022/10/04 13:22:32;;;;;;;;;;;19.00;99.90;;;;;;5055941;28;19921;-85
2022/10/04 13:25:07;;;;;;;;;;;19.10;99.90;;;;;;5014368;28;20289;-85
2022/10/04 13:27:40;;;;;;;;;;;18.10;99.90;;;;;;5012948;28;20384;-85
2022/10/04 13:30:14;;;;;;;;;;;19.30;99.90;;;;;;5029578;28;20384;-85
2022/10/04 13:32:42;;;;;;;;;;;19.30;99.90;;;;;;5012282;28;19935;-85
2022/10/04 13:35:22;;;;;;;;;;;19.10;99.90;;;;;;5029621;28;19927;-85
2022/10/04 13:38:01;;;;;;;;;;;19.20;99.90;;;;;;5030153;28;19921;-84
2022/10/04 13:40:36;;;;;;;;;;;19.20;99.90;;;;;;5029952;28;19986;-85
2022/10/04 13:43:11;;;;;;;;;;;19.30;99.90;;;;;;5029143;28;19921;-85
2022/10/04 13:45:43;;;;;;;;;;;19.20;99.90;;;;;;5029911;28;20358;-86
2022/10/04 13:48:27;;;;;;;;;;;19.20;99.90;;;;;;5029261;28;19920;-85
2022/10/04 13:50:53;;;;;;;;;;;19.20;99.90;;;;;;5029805;28;19924;-85
2022/10/04 13:56:36;;;;;;;;;;;19.10;99.90;;;;;;5029291;28;19920;-85
2022/10/04 13:59:02;;;;;;;;;;;19.00;99.90;;;;;;5030129;28;19920;-85
2022/10/04 14:01:30;;;;;;;;;;;19.00;99.90;;;;;;5029036;28;19927;-85
2022/10/04 14:04:07;;;;;;;;;;;18.90;99.90;;;;;;5029246;28;19927;-85
2022/10/04 14:06:52;;;;;;;;;;;18.80;99.90;;;;;;5029246;28;19975;-86
2022/10/04 14:09:21;;;;;;;;;;;18.80;99.90;;;;;;5029995;28;19921;-85
2022/10/04 14:12:00;;;;;;;;;;;18.80;99.90;;;;;;5013627;28;19920;-86
2022/10/04 14:14:42;;;;;;;;;;;18.90;99.90;;;;;;5028928;28;19920;-86
2022/10/04 14:17:14;;;;;;;;;;;19.00;99.90;;;;;;5028913;28;19920;-86
2022/10/04 14:19:42;;;;;;;;;;;19.00;99.90;;;;;;5013117;28;19920;-86
2022/10/04 14:22:08;;;;;;;;;;;19.10;99.90;;;;;;5029597;28;20316;-86
2022/10/04 14:24:34;;;;;;;;;;;19.20;99.90;;;;;;5029498;28;19979;-85
2022/10/04 14:27:19;;;;;;;;;;;19.20;99.90;;;;;;5011759;28;20019;-85
2022/10/04 14:30:06;;;;;;;;;;;19.10;99.90;;;;;;5028442;28;19921;-85
2022/10/04 14:32:48;;;;;;;;;;;19.00;99.90;;;;;;4999214;28;19922;-85
2022/10/04 14:35:25;;;;;;;;;;;19.00;99.90;;;;;;5012214;28;19920;-87
2022/10/04 14:38:09;;;;;;;;;;;19.00;99.90;;;;;;5028760;28;20089;-86
2022/10/04 14:40:35;;;;;;;;;;;19.00;99.90;;;;;;5011744;28;20015;-84
2022/10/04 14:43:17;;;;;;;;;;;19.00;99.90;;;;;;5011868;28;20029;-85
2022/10/04 14:45:52;;;;;;;;;;;18.90;99.90;;;;;;5011994;28;19927;-86
2022/10/04 14:48:28;;;;;;;;;;;18.80;99.90;;;;;;5028625;28;19928;-85
2022/10/04 14:51:11;;;;;;;;;;;18.70;99.90;;;;;;5028507;28;20439;-85
2022/10/04 14:53:46;;;;;;;;;;;18.60;99.90;;;;;;5028017;28;20395;-85
2022/10/04 14:56:23;;;;;;;;;;;18.50;99.90;;;;;;5028341;28;20526;-85
2022/10/04 14:59:07;;;;;;;;;;;18.50;99.90;;;;;;5028608;28;19920;-85
2022/10/04 15:01:37;;;;;;;;;;;18.50;99.90;;;;;;5028316;28;19920;-85
2022/10/04 15:04:02;;;;;;;;;;;18.40;99.90;;;;;;5031432;28;19920;-85
2022/10/04 15:06:41;;;;;;;;;;;18.40;99.90;;;;;;5031689;28;20359;-86
2022/10/04 15:09:09;;;;;;;;;;;18.30;99.90;;;;;;5035836;28;19967;-85